createdAt,value
2023-05-01T00:00:06.406Z,1
2023-05-01T00:04:01.816Z,1
2023-05-01T00:06:02.099Z,1
2023-05-01T00:08:01.535Z,1
2023-05-01T00:10:02.210Z,1
2023-05-01T00:12:01.552Z,1
2023-05-01T00:14:02.013Z,1
2023-05-01T00:16:01.527Z,1
2023-05-01T00:18:02.084Z,1
2023-05-01T00:20:01.619Z,1
2023-05-01T00:22:02.052Z,1
2023-05-01T00:24:01.557Z,1
2023-05-01T00:26:02.074Z,1
2023-05-01T00:28:01.473Z,1
2023-05-01T00:30:01.987Z,1
2023-05-01T00:32:01.573Z,1
2023-05-01T00:34:02.053Z,0
2023-05-01T00:36:01.403Z,0
2023-05-01T00:38:01.972Z,0
2023-05-01T00:40:01.462Z,1
2023-05-01T00:42:01.858Z,1
2023-05-01T00:44:01.317Z,1
2023-05-01T00:46:01.898Z,1
2023-05-01T00:48:01.479Z,1
2023-05-01T00:50:02.150Z,1
2023-05-01T00:52:01.507Z,1
2023-05-01T00:54:02.191Z,1
2023-05-01T00:56:01.580Z,1
2023-05-01T00:58:01.966Z,1
2023-05-01T01:00:05.329Z,1
2023-05-01T01:02:01.968Z,1
2023-05-01T01:04:01.457Z,0
2023-05-01T01:06:02.021Z,0
2023-05-01T01:08:01.544Z,0
2023-05-01T01:10:01.890Z,1
2023-05-01T01:12:01.315Z,1
2023-05-01T01:14:01.969Z,1
2023-05-01T01:16:01.468Z,1
2023-05-01T01:18:02.021Z,1
2023-05-01T01:20:01.521Z,1
2023-05-01T01:22:01.849Z,1
2023-05-01T01:24:01.303Z,1
2023-05-01T01:26:01.801Z,1
2023-05-01T01:28:01.302Z,1
2023-05-01T01:30:01.780Z,1
2023-05-01T01:32:02.190Z,1
2023-05-01T01:34:01.768Z,1
2023-05-01T01:36:01.372Z,1
2023-05-01T01:38:01.873Z,1
2023-05-01T01:40:02.179Z,1
2023-05-01T01:42:01.534Z,1
2023-05-01T01:44:02.133Z,1
2023-05-01T01:46:01.588Z,1
2023-05-01T01:48:02.161Z,1
2023-05-01T01:50:01.657Z,1
2023-05-01T01:52:02.107Z,1
2023-05-01T01:54:01.831Z,1
2023-05-01T01:56:03.691Z,1
2023-05-01T01:58:01.797Z,1
2023-05-01T02:00:05.996Z,1
2023-05-01T02:04:02.068Z,2
2023-05-01T02:06:01.585Z,2
2023-05-01T02:08:02.117Z,2
2023-05-01T02:10:01.697Z,1
2023-05-01T02:12:01.261Z,1
2023-05-01T02:14:01.828Z,1
2023-05-01T02:16:01.254Z,1
2023-05-01T02:18:02.136Z,1
2023-05-01T02:20:01.559Z,1
2023-05-01T02:22:02.078Z,3
2023-05-01T02:24:01.562Z,3
2023-05-01T02:26:02.000Z,3
2023-05-01T02:28:01.550Z,3
2023-05-01T02:30:02.253Z,3
2023-05-01T02:32:01.848Z,3
2023-05-01T02:34:02.177Z,1
2023-05-01T02:36:01.614Z,1
2023-05-01T02:38:01.264Z,1
2023-05-01T02:40:01.937Z,3
2023-05-01T02:42:01.404Z,3
2023-05-01T02:44:01.941Z,3
2023-05-01T02:46:01.501Z,1
2023-05-01T02:48:02.093Z,1
2023-05-01T02:50:01.606Z,1
2023-05-01T02:52:01.235Z,1
2023-05-01T02:54:01.854Z,1
2023-05-01T02:56:01.264Z,1
2023-05-01T02:58:01.773Z,3
2023-05-01T03:00:04.908Z,3
2023-05-01T03:04:01.961Z,1
2023-05-01T03:06:01.504Z,1
2023-05-01T03:08:03.567Z,1
2023-05-01T03:10:02.159Z,3
2023-05-01T03:12:01.775Z,3
2023-05-01T03:14:01.339Z,3
2023-05-01T03:16:01.926Z,3
2023-05-01T03:18:01.435Z,3
2023-05-01T03:20:01.956Z,3
2023-05-01T03:22:01.610Z,1
2023-05-01T03:24:01.908Z,1
2023-05-01T03:26:01.299Z,1
2023-05-01T03:28:01.554Z,1
2023-05-01T03:30:02.127Z,1
2023-05-01T03:32:01.461Z,1
2023-05-01T03:34:01.954Z,1
2023-05-01T03:36:01.499Z,1
2023-05-01T03:38:02.174Z,1
2023-05-01T03:40:01.578Z,1
2023-05-01T03:42:01.970Z,1
2023-05-01T03:44:01.438Z,1
2023-05-01T03:46:01.822Z,3
2023-05-01T03:48:01.414Z,3
2023-05-01T03:50:01.874Z,3
2023-05-01T03:52:02.225Z,1
2023-05-01T03:54:01.575Z,1
2023-05-01T03:56:02.097Z,1
2023-05-01T03:58:01.448Z,3
2023-05-01T04:00:06.574Z,3
2023-05-01T04:04:01.992Z,1
2023-05-01T04:06:02.127Z,1
2023-05-01T04:08:01.482Z,1
2023-05-01T04:10:02.030Z,1
2023-05-01T04:12:01.361Z,1
2023-05-01T04:14:01.851Z,1
2023-05-01T04:16:02.244Z,1
2023-05-01T04:18:01.841Z,1
2023-05-01T04:20:02.228Z,1
2023-05-01T04:22:01.597Z,1
2023-05-01T04:24:02.019Z,1
2023-05-01T04:26:01.434Z,1
2023-05-01T04:28:01.933Z,1
2023-05-01T04:30:01.471Z,1
2023-05-01T04:32:02.056Z,1
2023-05-01T04:34:01.339Z,1
2023-05-01T04:36:01.725Z,1
2023-05-01T04:38:02.215Z,1
2023-05-01T04:40:01.581Z,1
2023-05-01T04:42:02.110Z,1
2023-05-01T04:44:01.562Z,1
2023-05-01T04:46:01.950Z,1
2023-05-01T04:48:01.276Z,1
2023-05-01T04:50:02.052Z,1
2023-05-01T04:52:01.473Z,1
2023-05-01T04:54:01.838Z,1
2023-05-01T04:56:01.389Z,1
2023-05-01T04:58:01.764Z,0
2023-05-01T05:00:05.664Z,0
2023-05-01T05:02:02.144Z,0
2023-05-01T05:04:01.742Z,1
2023-05-01T05:06:02.161Z,1
2023-05-01T05:08:01.564Z,1
2023-05-01T05:10:01.994Z,1
2023-05-01T05:12:01.487Z,1
2023-05-01T05:14:02.027Z,1
2023-05-01T05:16:01.563Z,3
2023-05-01T05:18:01.985Z,3
2023-05-01T05:20:01.437Z,3
2023-05-01T05:22:01.967Z,1
2023-05-01T05:24:01.293Z,1
2023-05-01T05:26:01.887Z,1
2023-05-01T05:28:01.268Z,1
2023-05-01T05:30:01.786Z,1
2023-05-01T05:32:01.339Z,1
2023-05-01T05:34:01.766Z,1
2023-05-01T05:36:02.190Z,1
2023-05-01T05:38:01.681Z,1
2023-05-01T05:40:01.956Z,1
2023-05-01T05:42:01.481Z,1
2023-05-01T05:44:01.881Z,1
2023-05-01T05:46:01.558Z,3
2023-05-01T05:48:02.255Z,3
2023-05-01T05:50:01.654Z,3
2023-05-01T05:52:02.149Z,1
2023-05-01T05:54:01.622Z,1
2023-05-01T05:56:02.093Z,1
2023-05-01T05:58:01.471Z,1
2023-05-01T06:00:04.649Z,1
2023-05-01T06:02:02.130Z,1
2023-05-01T06:04:01.325Z,1
2023-05-01T06:06:01.923Z,1
2023-05-01T06:08:01.391Z,1
2023-05-01T06:10:01.896Z,1
2023-05-01T06:12:01.473Z,1
2023-05-01T06:14:01.965Z,1
2023-05-01T06:16:01.527Z,1
2023-05-01T06:18:01.979Z,1
2023-05-01T06:20:01.433Z,1
2023-05-01T06:22:01.822Z,1
2023-05-01T06:24:02.249Z,1
2023-05-01T06:26:01.484Z,1
2023-05-01T06:28:01.841Z,3
2023-05-01T06:30:02.250Z,3
2023-05-01T06:32:01.683Z,3
2023-05-01T06:34:02.119Z,1
2023-05-01T06:36:01.617Z,1
2023-05-01T06:38:02.036Z,1
2023-05-01T06:40:01.485Z,1
2023-05-01T06:42:01.903Z,1
2023-05-01T06:44:01.478Z,1
2023-05-01T06:46:01.828Z,3
2023-05-01T06:48:01.368Z,3
2023-05-01T06:50:06.087Z,3
2023-05-01T06:54:01.630Z,3
2023-05-01T06:56:02.205Z,3
2023-05-01T06:58:06.957Z,1
2023-05-01T07:00:05.121Z,1
2023-05-01T07:02:02.234Z,1
2023-05-01T07:04:01.599Z,1
2023-05-01T07:06:02.144Z,1
2023-05-01T07:08:02.094Z,1
2023-05-01T07:10:02.067Z,1
2023-05-01T07:12:01.504Z,1
2023-05-01T07:14:02.021Z,1
2023-05-01T07:16:01.471Z,1
2023-05-01T07:18:01.995Z,1
2023-05-01T07:20:01.651Z,1
2023-05-01T07:22:02.070Z,1
2023-05-01T07:24:01.492Z,1
2023-05-01T07:26:01.952Z,1
2023-05-01T07:28:01.392Z,3
2023-05-01T07:30:02.138Z,3
2023-05-01T07:32:01.862Z,3
2023-05-01T07:34:01.265Z,1
2023-05-01T07:36:01.757Z,1
2023-05-01T07:38:01.257Z,1
2023-05-01T07:40:02.088Z,1
2023-05-01T07:42:01.600Z,1
2023-05-01T07:44:02.121Z,1
2023-05-01T07:46:01.625Z,2
2023-05-01T07:48:01.994Z,2
2023-05-01T07:50:01.608Z,2
2023-05-01T07:52:01.991Z,3
2023-05-01T07:54:01.528Z,3
2023-05-01T07:56:02.049Z,3
2023-05-01T07:58:01.540Z,3
2023-05-01T08:00:06.219Z,3
2023-05-01T08:04:02.373Z,2
2023-05-01T08:06:02.007Z,2
2023-05-01T08:08:01.500Z,2
2023-05-01T08:10:02.287Z,1
2023-05-01T08:12:01.700Z,1
2023-05-01T08:14:02.090Z,1
2023-05-01T08:16:01.532Z,1
2023-05-01T08:18:02.013Z,1
2023-05-01T08:20:01.485Z,1
2023-05-01T08:22:01.925Z,1
2023-05-01T08:24:01.321Z,1
2023-05-01T08:26:01.873Z,1
2023-05-01T08:28:01.369Z,1
2023-05-01T08:30:01.909Z,1
2023-05-01T08:32:01.530Z,1
2023-05-01T08:34:01.961Z,1
2023-05-01T08:36:01.348Z,1
2023-05-01T08:38:01.887Z,1
2023-05-01T08:40:01.294Z,1
2023-05-01T08:42:01.685Z,1
2023-05-01T08:44:02.058Z,1
2023-05-01T08:46:01.295Z,1
2023-05-01T08:48:01.953Z,1
2023-05-01T08:50:01.513Z,1
2023-05-01T08:52:01.840Z,4
2023-05-01T08:54:01.244Z,4
2023-05-01T08:56:01.826Z,4
2023-05-01T08:58:02.196Z,1
2023-05-01T09:00:05.268Z,1
2023-05-01T09:02:02.188Z,1
2023-05-01T09:04:01.585Z,1
2023-05-01T09:06:02.014Z,1
2023-05-01T09:08:01.538Z,1
2023-05-01T09:10:02.147Z,2
2023-05-01T09:12:01.637Z,2
2023-05-01T09:14:02.187Z,2
2023-05-01T09:16:01.702Z,2
2023-05-01T09:18:03.568Z,2
2023-05-01T09:20:01.875Z,2
2023-05-01T09:22:01.263Z,3
2023-05-01T09:24:01.827Z,3
2023-05-01T09:26:01.340Z,3
2023-05-01T09:28:01.946Z,3
2023-05-01T09:30:01.522Z,3
2023-05-01T09:32:01.973Z,3
2023-05-01T09:34:01.490Z,1
2023-05-01T09:36:01.267Z,1
2023-05-01T09:38:01.873Z,1
2023-05-01T09:40:01.338Z,1
2023-05-01T09:42:01.816Z,1
2023-05-01T09:44:01.474Z,1
2023-05-01T09:46:01.935Z,3
2023-05-01T09:48:01.393Z,3
2023-05-01T09:50:01.961Z,3
2023-05-01T09:52:01.434Z,1
2023-05-01T09:54:02.015Z,1
2023-05-01T09:56:01.403Z,1
2023-05-01T09:58:01.909Z,1
2023-05-01T10:00:04.398Z,1
2023-05-01T10:02:01.651Z,1
2023-05-01T10:04:01.990Z,3
2023-05-01T10:06:01.515Z,3
2023-05-01T10:08:02.065Z,3
2023-05-01T10:10:02.266Z,4
2023-05-01T10:12:02.112Z,4
2023-05-01T10:14:01.489Z,4
2023-05-01T10:16:01.961Z,1
2023-05-01T10:18:01.654Z,1
2023-05-01T10:20:02.144Z,1
2023-05-01T10:22:01.615Z,3
2023-05-01T10:24:02.084Z,3
2023-05-01T10:26:03.322Z,3
2023-05-01T10:28:01.887Z,1
2023-05-01T10:30:01.500Z,1
2023-05-01T10:32:01.918Z,1
2023-05-01T10:34:02.249Z,3
2023-05-01T10:36:01.669Z,3
2023-05-01T10:38:02.078Z,3
2023-05-01T10:40:01.552Z,1
2023-05-01T10:42:02.051Z,1
2023-05-01T10:44:01.486Z,1
2023-05-01T10:46:01.951Z,1
2023-05-01T10:48:01.660Z,1
2023-05-01T10:50:02.096Z,1
2023-05-01T10:52:01.393Z,1
2023-05-01T10:54:01.990Z,1
2023-05-01T10:56:01.466Z,1
2023-05-01T10:58:02.007Z,1
2023-05-01T11:00:01.600Z,1
2023-05-01T11:02:01.551Z,1
2023-05-01T11:04:01.953Z,0
2023-05-01T11:06:01.688Z,0
2023-05-01T11:08:02.044Z,0
2023-05-01T11:10:01.397Z,1
2023-05-01T11:12:01.975Z,1
2023-05-01T11:14:01.595Z,1
2023-05-01T11:16:02.105Z,1
2023-05-01T11:18:01.586Z,1
2023-05-01T11:20:01.957Z,1
2023-05-01T11:22:01.421Z,1
2023-05-01T11:24:02.030Z,1
2023-05-01T11:26:01.477Z,1
2023-05-01T11:28:01.974Z,1
2023-05-01T11:30:01.488Z,1
2023-05-01T11:32:02.115Z,1
2023-05-01T11:34:01.580Z,1
2023-05-01T11:36:02.088Z,1
2023-05-01T11:38:01.653Z,1
2023-05-01T11:40:02.169Z,1
2023-05-01T11:42:01.740Z,1
2023-05-01T11:44:02.117Z,1
2023-05-01T11:46:01.600Z,1
2023-05-01T11:48:03.742Z,1
2023-05-01T11:50:01.823Z,1
2023-05-01T11:52:01.248Z,1
2023-05-01T11:54:01.841Z,1
2023-05-01T11:56:01.404Z,1
2023-05-01T11:58:01.851Z,1
2023-05-01T12:00:04.837Z,1
2023-05-01T12:02:02.226Z,1
2023-05-01T12:04:01.863Z,2
2023-05-01T12:06:02.172Z,2
2023-05-01T12:08:01.787Z,2
2023-05-01T12:10:01.365Z,0
2023-05-01T12:12:01.877Z,0
2023-05-01T12:14:01.372Z,0
2023-05-01T12:16:01.764Z,2
2023-05-01T12:18:02.268Z,2
2023-05-01T12:20:01.871Z,2
2023-05-01T12:22:01.366Z,1
2023-05-01T12:24:01.875Z,1
2023-05-01T12:26:01.448Z,1
2023-05-01T12:28:01.812Z,1
2023-05-01T12:30:01.307Z,1
2023-05-01T12:32:01.797Z,1
2023-05-01T12:34:02.077Z,1
2023-05-01T12:36:01.481Z,1
2023-05-01T12:38:01.974Z,1
2023-05-01T12:40:01.591Z,1
2023-05-01T12:42:02.014Z,1
2023-05-01T12:44:01.533Z,1
2023-05-01T12:46:02.002Z,2
2023-05-01T12:48:01.632Z,2
2023-05-01T12:50:02.245Z,2
2023-05-01T12:52:01.795Z,1
2023-05-01T12:54:01.300Z,1
2023-05-01T12:56:01.894Z,1
2023-05-01T12:58:01.366Z,1
2023-05-01T13:00:04.742Z,1
2023-05-01T13:02:01.794Z,1
2023-05-01T13:04:01.473Z,2
2023-05-01T13:06:01.877Z,2
2023-05-01T13:08:01.441Z,2
2023-05-01T13:10:02.373Z,1
2023-05-01T13:12:01.518Z,1
2023-05-01T13:14:02.156Z,1
2023-05-01T13:16:01.665Z,0
2023-05-01T13:18:01.295Z,1
2023-05-01T13:20:02.353Z,1
2023-05-01T13:22:01.472Z,1
2023-05-01T13:24:02.137Z,1
2023-05-01T13:26:01.892Z,1
2023-05-01T13:28:01.512Z,1
2023-05-01T13:30:02.340Z,1
2023-05-01T13:32:01.693Z,1
2023-05-01T13:34:02.152Z,1
2023-05-01T13:36:06.319Z,1
2023-05-01T13:38:02.091Z,1
2023-05-01T13:40:01.581Z,1
2023-05-01T13:42:01.906Z,1
2023-05-01T13:44:01.369Z,1
2023-05-01T13:46:01.815Z,1
2023-05-01T13:48:02.150Z,1
2023-05-01T13:50:01.910Z,1
2023-05-01T13:52:02.140Z,1
2023-05-01T13:54:01.393Z,1
2023-05-01T13:56:01.968Z,1
2023-05-01T13:58:01.410Z,2
2023-05-01T14:00:04.579Z,2
2023-05-01T14:02:01.994Z,2
2023-05-01T14:04:01.399Z,1
2023-05-01T14:06:02.127Z,1
2023-05-01T14:08:01.645Z,1
2023-05-01T14:10:02.059Z,1
2023-05-01T14:12:01.435Z,1
2023-05-01T14:14:01.889Z,1
2023-05-01T14:16:02.201Z,2
2023-05-01T14:18:01.796Z,2
2023-05-01T14:20:02.052Z,2
2023-05-01T14:22:01.415Z,1
2023-05-01T14:24:01.868Z,1
2023-05-01T14:26:01.322Z,1
2023-05-01T14:28:01.767Z,1
2023-05-01T14:30:01.332Z,1
2023-05-01T14:32:01.858Z,1
2023-05-01T14:34:01.351Z,2
2023-05-01T14:36:01.843Z,2
2023-05-01T14:38:02.176Z,2
2023-05-01T14:40:01.697Z,1
2023-05-01T14:42:02.013Z,1
2023-05-01T14:44:01.484Z,1
2023-05-01T14:46:02.049Z,1
2023-05-01T14:48:01.412Z,1
2023-05-01T14:50:02.123Z,1
2023-05-01T14:52:01.505Z,3
2023-05-01T14:54:01.965Z,3
2023-05-01T14:56:01.452Z,3
2023-05-01T14:58:01.940Z,2
2023-05-01T15:00:01.625Z,2
2023-05-01T15:02:01.562Z,2
2023-05-01T15:04:03.576Z,2
2023-05-01T15:06:01.528Z,2
2023-05-01T15:08:02.175Z,2
2023-05-01T15:10:01.632Z,3
2023-05-01T15:12:02.168Z,3
2023-05-01T15:14:01.700Z,3
2023-05-01T15:16:02.230Z,2
2023-05-01T15:18:01.737Z,2
2023-05-01T15:20:02.306Z,2
2023-05-01T15:22:01.424Z,2
2023-05-01T15:24:02.023Z,2
2023-05-01T15:26:01.447Z,2
2023-05-01T15:28:01.861Z,2
2023-05-01T15:30:01.578Z,2
2023-05-01T15:32:12.024Z,2
2023-05-01T15:34:01.401Z,2
2023-05-01T15:36:01.899Z,2
2023-05-01T15:38:01.496Z,2
2023-05-01T15:40:01.976Z,2
2023-05-01T15:42:01.496Z,2
2023-05-01T15:44:01.986Z,2
2023-05-01T15:46:01.716Z,2
2023-05-01T15:48:02.140Z,2
2023-05-01T15:50:01.838Z,2
2023-05-01T15:52:01.847Z,2
2023-05-01T15:54:01.407Z,2
2023-05-01T15:56:01.990Z,2
2023-05-01T15:58:01.422Z,3
2023-05-01T16:00:05.327Z,3
2023-05-01T16:02:02.099Z,3
2023-05-01T16:04:01.820Z,3
2023-05-01T16:06:02.059Z,3
2023-05-01T16:08:01.589Z,3
2023-05-01T16:10:02.401Z,3
2023-05-01T16:12:01.571Z,3
2023-05-01T16:14:02.117Z,3
2023-05-01T16:16:01.534Z,3
2023-05-01T16:18:02.122Z,3
2023-05-01T16:20:02.073Z,3
2023-05-01T16:22:02.127Z,2
2023-05-01T16:24:01.538Z,4
2023-05-01T16:26:01.951Z,4
2023-05-01T16:30:02.385Z,2
2023-05-01T16:32:01.705Z,2
2023-05-01T16:34:01.284Z,2
2023-05-01T16:36:01.708Z,2
2023-05-01T16:38:01.244Z,2
2023-05-01T16:40:02.509Z,1
2023-05-01T16:42:01.490Z,2
2023-05-01T16:44:02.095Z,2
2023-05-01T16:46:01.693Z,2
2023-05-01T16:48:01.501Z,4
2023-05-01T16:50:02.274Z,4
2023-05-01T16:52:04.023Z,1
2023-05-01T16:54:02.111Z,3
2023-05-01T16:56:01.807Z,3
2023-05-01T16:58:01.306Z,2
2023-05-01T17:00:05.425Z,4
2023-05-01T17:02:02.318Z,4
2023-05-01T17:04:01.823Z,3
2023-05-01T17:06:01.407Z,3
2023-05-01T17:08:02.074Z,3
2023-05-01T17:10:01.805Z,1
2023-05-01T17:12:02.095Z,3
2023-05-01T17:14:01.719Z,3
2023-05-01T17:16:02.270Z,1
2023-05-01T17:18:01.744Z,4
2023-05-01T17:20:02.561Z,4
2023-05-01T17:22:01.711Z,2
2023-05-01T17:24:02.118Z,2
2023-05-01T17:26:01.613Z,2
2023-05-01T17:28:01.924Z,2
2023-05-01T17:30:01.823Z,4
2023-05-01T17:32:01.892Z,4
2023-05-01T17:34:01.495Z,1
2023-05-01T17:36:01.895Z,4
2023-05-01T17:38:01.360Z,4
2023-05-01T17:40:02.179Z,2
2023-05-01T17:42:01.353Z,2
2023-05-01T17:44:01.842Z,2
2023-05-01T17:46:01.439Z,2
2023-05-01T17:48:01.913Z,2
2023-05-01T17:50:02.557Z,2
2023-05-01T17:52:01.586Z,2
2023-05-01T17:54:02.035Z,4
2023-05-01T17:56:01.397Z,4
2023-05-01T17:58:01.665Z,1
2023-05-01T18:00:04.677Z,2
2023-05-01T18:02:01.592Z,2
2023-05-01T18:04:02.039Z,2
2023-05-01T18:06:02.330Z,4
2023-05-01T18:08:01.781Z,4
2023-05-01T18:10:02.528Z,2
2023-05-01T18:12:01.741Z,4
2023-05-01T18:14:02.115Z,4
2023-05-01T18:16:01.638Z,2
2023-05-01T18:18:02.192Z,2
2023-05-01T18:20:01.924Z,2
2023-05-01T18:22:02.079Z,2
2023-05-01T18:24:01.460Z,2
2023-05-01T18:26:01.880Z,2
2023-05-01T18:28:01.339Z,1
2023-05-01T18:30:02.348Z,4
2023-05-01T18:32:01.587Z,4
2023-05-01T18:36:01.508Z,4
2023-05-01T18:38:02.010Z,4
2023-05-01T18:40:01.836Z,1
2023-05-01T18:42:02.076Z,2
2023-05-01T18:44:01.731Z,2
2023-05-01T18:46:02.201Z,2
2023-05-01T18:48:01.650Z,2
2023-05-01T18:50:01.495Z,2
2023-05-01T18:52:01.808Z,2
2023-05-01T18:54:02.993Z,5
2023-05-01T18:56:02.111Z,5
2023-05-01T18:58:01.550Z,2
2023-05-01T19:00:05.425Z,4
2023-05-01T19:04:01.801Z,2
2023-05-01T19:06:02.333Z,2
2023-05-01T19:08:01.878Z,2
2023-05-01T19:10:01.745Z,1
2023-05-01T19:12:01.931Z,5
2023-05-01T19:14:01.376Z,5
2023-05-01T19:16:01.970Z,2
2023-05-01T19:18:01.567Z,4
2023-05-01T19:20:01.683Z,4
2023-05-01T19:22:01.985Z,4
2023-05-01T19:24:01.494Z,4
2023-05-01T19:26:02.033Z,4
2023-05-01T19:28:01.494Z,4
2023-05-01T19:30:02.650Z,5
2023-05-01T19:32:01.874Z,5
2023-05-01T19:34:01.427Z,3
2023-05-01T19:36:02.086Z,4
2023-05-01T19:38:01.481Z,4
2023-05-01T19:40:02.300Z,4
2023-05-01T19:42:01.618Z,5
2023-05-01T19:44:01.269Z,5
2023-05-01T19:46:01.763Z,3
2023-05-01T19:48:02.285Z,2
2023-05-01T19:50:02.031Z,2
2023-05-01T19:52:01.349Z,3
2023-05-01T19:54:01.932Z,4
2023-05-01T19:56:01.495Z,4
2023-05-01T19:58:02.032Z,3
2023-05-01T20:00:06.474Z,5
2023-05-01T20:04:02.015Z,6
2023-05-01T20:06:01.401Z,4
2023-05-01T20:08:01.947Z,4
2023-05-01T20:10:01.695Z,3
2023-05-01T20:12:02.148Z,5
2023-05-01T20:14:01.664Z,5
2023-05-01T20:16:01.317Z,4
2023-05-01T20:18:01.921Z,4
2023-05-01T20:20:01.516Z,4
2023-05-01T20:22:01.886Z,3
2023-05-01T20:24:01.486Z,4
2023-05-01T20:26:02.033Z,4
2023-05-01T20:28:01.459Z,2
2023-05-01T20:30:02.199Z,4
2023-05-01T20:32:01.444Z,4
2023-05-01T20:34:01.908Z,4
2023-05-01T20:36:01.691Z,2
2023-05-01T20:38:02.104Z,2
2023-05-01T20:40:01.674Z,4
2023-05-01T20:42:02.066Z,5
2023-05-01T20:44:01.589Z,5
2023-05-01T20:46:02.052Z,4
2023-05-01T20:48:01.647Z,5
2023-05-01T20:50:02.287Z,5
2023-05-01T20:52:01.932Z,4
2023-05-01T20:54:01.464Z,4
2023-05-01T20:56:02.083Z,4
2023-05-01T20:58:01.433Z,4
2023-05-01T21:00:05.522Z,5
2023-05-01T21:02:02.149Z,5
2023-05-01T21:04:01.951Z,6
2023-05-01T21:06:02.280Z,4
2023-05-01T21:08:01.632Z,4
2023-05-01T21:10:02.201Z,4
2023-05-01T21:12:01.539Z,4
2023-05-01T21:14:02.102Z,4
2023-05-01T21:16:01.595Z,4
2023-05-01T21:18:02.114Z,4
2023-05-01T21:20:01.754Z,4
2023-05-01T21:22:02.105Z,4
2023-05-01T21:24:01.609Z,5
2023-05-01T21:26:02.199Z,5
2023-05-01T21:28:01.497Z,4
2023-05-01T21:30:02.519Z,5
2023-05-01T21:32:01.799Z,5
2023-05-01T21:34:01.245Z,4
2023-05-01T21:36:01.812Z,4
2023-05-01T21:38:01.507Z,4
2023-05-01T21:40:02.405Z,4
2023-05-01T21:42:01.706Z,7
2023-05-01T21:44:01.229Z,7
2023-05-01T21:46:01.810Z,4
2023-05-01T21:48:01.674Z,4
2023-05-01T21:50:02.261Z,4
2023-05-01T21:52:01.505Z,4
2023-05-01T21:58:02.012Z,4
2023-05-01T22:00:02.260Z,4
2023-05-01T22:02:01.353Z,4
2023-05-01T22:04:01.812Z,4
2023-05-01T22:06:01.329Z,4
2023-05-01T22:08:01.844Z,4
2023-05-01T22:10:01.601Z,4
2023-05-01T22:12:01.966Z,7
2023-05-01T22:14:01.393Z,7
2023-05-01T22:16:01.912Z,3
2023-05-01T22:18:01.574Z,2
2023-05-01T22:20:02.462Z,2
2023-05-01T22:22:01.501Z,4
2023-05-01T22:24:02.046Z,4
2023-05-01T22:26:01.448Z,4
2023-05-01T22:28:02.117Z,6
2023-05-01T22:30:02.199Z,4
2023-05-01T22:32:01.489Z,4
2023-05-01T22:34:01.960Z,3
2023-05-01T22:36:01.504Z,4
2023-05-01T22:38:01.987Z,4
2023-05-01T22:40:01.825Z,4
2023-05-01T22:42:01.902Z,4
2023-05-01T22:44:01.585Z,4
2023-05-01T22:46:02.155Z,6
2023-05-01T22:48:01.721Z,7
2023-05-01T22:50:02.660Z,7
2023-05-01T22:52:01.659Z,4
2023-05-01T22:54:02.113Z,6
2023-05-01T22:56:01.612Z,6
2023-05-01T22:58:02.033Z,6
2023-05-01T23:00:01.912Z,9
2023-05-01T23:02:01.808Z,9
2023-05-01T23:04:02.359Z,3
2023-05-01T23:06:01.624Z,7
2023-05-01T23:08:02.082Z,7
2023-05-01T23:10:01.741Z,4
2023-05-01T23:12:01.980Z,4
2023-05-01T23:14:01.439Z,4
2023-05-01T23:16:01.911Z,3
2023-05-01T23:18:02.263Z,4
2023-05-01T23:20:02.155Z,4
2023-05-01T23:22:02.206Z,4
2023-05-01T23:24:01.868Z,7
2023-05-01T23:26:01.282Z,7
2023-05-01T23:28:01.669Z,4
2023-05-01T23:30:01.530Z,6
2023-05-01T23:32:02.025Z,6
2023-05-01T23:34:02.184Z,3
2023-05-01T23:36:01.554Z,4
2023-05-01T23:38:02.145Z,4
2023-05-01T23:40:01.744Z,4
2023-05-01T23:42:02.191Z,4
2023-05-01T23:44:01.747Z,4
2023-05-01T23:46:01.320Z,4
2023-05-01T23:48:01.874Z,4
2023-05-01T23:50:01.760Z,4
2023-05-01T23:52:01.658Z,3
2023-05-01T23:54:02.133Z,4
2023-05-01T23:56:01.731Z,4
2023-05-01T23:58:02.219Z,4
